createdAt,value
2022-09-04T00:00:50.221Z,0.00
2022-09-04T00:01:50.188Z,0.00
2022-09-04T00:02:50.182Z,0.00
2022-09-04T00:03:50.300Z,0.00
2022-09-04T00:04:50.327Z,0.00
2022-09-04T00:05:50.148Z,0.00
2022-09-04T00:06:50.140Z,0.00
2022-09-04T00:07:50.126Z,0.00
2022-09-04T00:08:50.113Z,0.00
2022-09-04T00:09:50.134Z,0.00
2022-09-04T00:10:50.101Z,0.00
2022-09-04T00:11:50.091Z,0.00
2022-09-04T00:12:50.073Z,0.00
2022-09-04T00:13:50.073Z,0.00
2022-09-04T00:14:50.084Z,0.00
2022-09-04T00:15:50.056Z,0.00
2022-09-04T00:16:50.113Z,0.00
2022-09-04T00:17:50.043Z,0.00
2022-09-04T00:18:50.028Z,0.00
2022-09-04T00:19:50.036Z,0.00
2022-09-04T00:20:50.004Z,0.00
2022-09-04T00:21:50.028Z,0.00
2022-09-04T00:22:49.981Z,0.00
2022-09-04T00:23:49.976Z,0.00
2022-09-04T00:24:49.998Z,0.00
2022-09-04T00:25:49.962Z,0.00
2022-09-04T00:26:49.950Z,0.00
2022-09-04T00:27:49.933Z,0.00
2022-09-04T00:28:49.928Z,0.00
2022-09-04T00:29:49.935Z,0.00
2022-09-04T00:30:49.955Z,0.00
2022-09-04T00:31:49.900Z,0.00
2022-09-04T00:32:49.926Z,0.00
2022-09-04T00:33:49.872Z,0.00
2022-09-04T00:34:49.895Z,0.00
2022-09-04T00:35:49.851Z,0.00
2022-09-04T00:36:50.484Z,0.00
2022-09-04T00:37:49.831Z,0.00
2022-09-04T00:38:49.897Z,0.00
2022-09-04T00:39:49.881Z,0.00
2022-09-04T00:40:49.801Z,0.00
2022-09-04T00:41:49.795Z,0.00
2022-09-04T00:42:49.815Z,0.00
2022-09-04T00:43:49.779Z,0.00
2022-09-04T00:44:49.786Z,0.00
2022-09-04T00:45:49.821Z,0.00
2022-09-04T00:46:49.745Z,0.00
2022-09-04T00:47:49.735Z,0.00
2022-09-04T00:48:49.733Z,0.00
2022-09-04T00:49:49.735Z,0.00
2022-09-04T00:50:49.706Z,0.00
2022-09-04T00:51:49.692Z,0.00
2022-09-04T00:52:49.717Z,0.00
2022-09-04T00:53:50.667Z,0.00
2022-09-04T00:54:49.686Z,0.00
2022-09-04T00:55:49.654Z,0.00
2022-09-04T00:56:49.643Z,0.00
2022-09-04T00:57:49.630Z,0.00
2022-09-04T00:58:49.626Z,0.00
2022-09-04T00:59:49.658Z,0.00
2022-09-04T01:00:49.630Z,0.00
2022-09-04T01:01:49.649Z,0.00
2022-09-04T01:02:49.587Z,0.00
2022-09-04T01:03:49.573Z,0.00
2022-09-04T01:04:49.585Z,0.00
2022-09-04T01:05:49.561Z,0.00
2022-09-04T01:06:49.550Z,0.00
2022-09-04T01:07:49.537Z,0.00
2022-09-04T01:08:49.529Z,0.00
2022-09-04T01:09:50.533Z,0.00
2022-09-04T01:10:49.510Z,0.00
2022-09-04T01:11:49.496Z,0.00
2022-09-04T01:12:49.509Z,0.00
2022-09-04T01:13:49.481Z,0.00
2022-09-04T01:14:52.966Z,0.00
2022-09-04T01:15:49.465Z,0.00
2022-09-04T01:16:49.498Z,0.00
2022-09-04T01:17:49.436Z,0.00
2022-09-04T01:18:49.432Z,0.00
2022-09-04T01:19:49.449Z,0.00
2022-09-04T01:20:49.419Z,0.00
2022-09-04T01:21:49.413Z,0.00
2022-09-04T01:22:49.397Z,0.00
2022-09-04T01:23:49.462Z,0.00
2022-09-04T01:24:49.386Z,0.00
2022-09-04T01:25:49.369Z,0.00
2022-09-04T01:26:49.365Z,0.00
2022-09-04T01:27:49.345Z,0.00
2022-09-04T01:28:49.321Z,0.00
2022-09-04T01:29:49.346Z,0.00
2022-09-04T01:30:49.317Z,0.00
2022-09-04T01:31:49.330Z,0.00
2022-09-04T01:32:49.288Z,0.00
2022-09-04T01:33:49.287Z,0.00
2022-09-04T01:34:49.299Z,0.00
2022-09-04T01:35:49.268Z,0.00
2022-09-04T01:36:49.263Z,0.00
2022-09-04T01:37:49.252Z,0.00
2022-09-04T01:38:49.239Z,0.00
2022-09-04T01:39:49.271Z,0.00
2022-09-04T01:40:50.221Z,0.00
2022-09-04T01:41:49.206Z,0.00
2022-09-04T01:42:49.212Z,0.00
2022-09-04T01:43:49.188Z,0.00
2022-09-04T01:44:49.175Z,0.00
2022-09-04T01:45:49.252Z,0.00
2022-09-04T01:46:49.155Z,0.00
2022-09-04T01:47:49.151Z,0.00
2022-09-04T01:48:49.140Z,0.00
2022-09-04T01:49:49.129Z,0.00
2022-09-04T01:50:49.142Z,0.00
2022-09-04T01:51:49.111Z,0.00
2022-09-04T01:52:49.097Z,0.00
2022-09-04T01:53:49.094Z,0.00
2022-09-04T01:54:49.097Z,0.00
2022-09-04T01:55:49.072Z,0.00
2022-09-04T01:56:49.057Z,0.00
2022-09-04T01:57:49.056Z,0.00
2022-09-04T01:58:49.045Z,0.00
2022-09-04T01:59:53.469Z,0.00
2022-09-04T02:00:50.063Z,0.00
2022-09-04T02:01:49.074Z,0.00
2022-09-04T02:02:52.131Z,0.00
2022-09-04T02:03:48.991Z,0.00
2022-09-04T02:04:48.997Z,0.00
2022-09-04T02:05:48.974Z,0.00
2022-09-04T02:06:48.971Z,0.00
2022-09-04T02:07:48.948Z,0.00
2022-09-04T02:08:48.942Z,0.00
2022-09-04T02:09:48.955Z,0.00
2022-09-04T02:10:48.925Z,0.00
2022-09-04T02:11:48.905Z,0.00
2022-09-04T02:12:48.883Z,0.00
2022-09-04T02:13:48.887Z,0.00
2022-09-04T02:14:48.896Z,0.00
2022-09-04T02:15:48.864Z,0.00
2022-09-04T02:16:48.898Z,0.00
2022-09-04T02:17:48.848Z,0.00
2022-09-04T02:18:48.836Z,0.00
2022-09-04T02:19:48.858Z,0.00
2022-09-04T02:20:48.803Z,0.00
2022-09-04T02:21:48.809Z,0.00
2022-09-04T02:22:48.816Z,0.00
2022-09-04T02:23:48.792Z,0.00
2022-09-04T02:24:48.811Z,0.00
2022-09-04T02:25:48.770Z,0.00
2022-09-04T02:26:48.762Z,0.00
2022-09-04T02:27:48.749Z,0.00
2022-09-04T02:28:48.729Z,0.00
2022-09-04T02:29:48.751Z,0.00
2022-09-04T02:30:54.161Z,0.00
2022-09-04T02:31:49.750Z,0.00
2022-09-04T02:32:48.691Z,0.00
2022-09-04T02:33:48.687Z,0.00
2022-09-04T02:34:48.687Z,0.00
2022-09-04T02:35:48.686Z,0.00
2022-09-04T02:36:50.219Z,0.00
2022-09-04T02:37:48.649Z,0.00
2022-09-04T02:38:48.642Z,0.00
2022-09-04T02:39:48.668Z,0.00
2022-09-04T02:40:48.635Z,0.00
2022-09-04T02:41:48.611Z,0.00
2022-09-04T02:42:48.599Z,0.00
2022-09-04T02:43:48.583Z,0.00
2022-09-04T02:44:48.572Z,0.00
2022-09-04T02:45:48.597Z,0.00
2022-09-04T02:46:48.594Z,0.00
2022-09-04T02:47:48.540Z,0.00
2022-09-04T02:48:48.539Z,0.00
2022-09-04T02:49:48.540Z,0.00
2022-09-04T02:50:48.537Z,0.00
2022-09-04T02:51:48.497Z,0.00
2022-09-04T02:52:48.652Z,0.00
2022-09-04T02:53:48.485Z,0.00
2022-09-04T02:54:48.506Z,0.00
2022-09-04T02:55:48.467Z,0.00
2022-09-04T02:56:48.462Z,0.00
2022-09-04T02:57:48.451Z,0.00
2022-09-04T02:58:48.451Z,0.00
2022-09-04T02:59:48.489Z,0.00
2022-09-04T03:00:48.455Z,0.00
2022-09-04T03:01:50.025Z,0.00
2022-09-04T03:02:49.408Z,0.00
2022-09-04T03:03:48.387Z,0.00
2022-09-04T03:04:48.385Z,0.00
2022-09-04T03:05:48.386Z,0.00
2022-09-04T03:06:48.368Z,0.00
2022-09-04T03:07:48.336Z,0.00
2022-09-04T03:08:48.345Z,0.00
2022-09-04T03:09:48.354Z,0.00
2022-09-04T03:10:48.318Z,0.00
2022-09-04T03:11:48.306Z,0.00
2022-09-04T03:12:48.303Z,0.00
2022-09-04T03:13:48.283Z,0.00
2022-09-04T03:14:48.302Z,0.00
2022-09-04T03:15:48.274Z,0.00
2022-09-04T03:16:48.256Z,0.00
2022-09-04T03:17:48.252Z,0.00
2022-09-04T03:18:48.240Z,0.00
2022-09-04T03:19:48.249Z,0.00
2022-09-04T03:20:48.226Z,0.00
2022-09-04T03:21:48.212Z,0.00
2022-09-04T03:22:48.203Z,0.00
2022-09-04T03:23:48.187Z,0.00
2022-09-04T03:24:48.204Z,0.00
2022-09-04T03:25:48.173Z,0.00
2022-09-04T03:26:48.161Z,0.00
2022-09-04T03:27:48.163Z,0.00
2022-09-04T03:28:48.147Z,0.00
2022-09-04T03:29:48.146Z,0.00
2022-09-04T03:30:48.126Z,0.00
2022-09-04T03:31:48.176Z,0.00
2022-09-04T03:32:48.105Z,0.00
2022-09-04T03:33:48.096Z,0.00
2022-09-04T03:34:48.107Z,0.00
2022-09-04T03:35:48.065Z,0.00
2022-09-04T03:36:48.064Z,0.00
2022-09-04T03:37:48.052Z,0.00
2022-09-04T03:38:48.045Z,0.00
2022-09-04T03:39:48.073Z,0.00
2022-09-04T03:40:48.024Z,0.00
2022-09-04T03:41:48.009Z,0.00
2022-09-04T03:42:47.994Z,0.00
2022-09-04T03:43:47.988Z,0.00
2022-09-04T03:44:48.000Z,0.00
2022-09-04T03:45:47.972Z,0.00
2022-09-04T03:46:48.071Z,0.00
2022-09-04T03:47:47.953Z,0.00
2022-09-04T03:48:47.935Z,0.00
2022-09-04T03:49:47.956Z,0.00
2022-09-04T03:50:47.922Z,0.00
2022-09-04T03:51:47.897Z,0.00
2022-09-04T03:52:47.903Z,0.00
2022-09-04T03:53:47.895Z,0.00
2022-09-04T03:54:47.904Z,0.00
2022-09-04T03:55:47.873Z,0.00
2022-09-04T03:56:47.857Z,0.00
2022-09-04T03:57:47.877Z,0.00
2022-09-04T03:58:47.841Z,0.00
2022-09-04T03:59:47.842Z,0.00
2022-09-04T04:00:47.858Z,0.00
2022-09-04T04:01:47.820Z,0.00
2022-09-04T04:02:47.818Z,4.00
2022-09-04T04:03:47.788Z,4.00
2022-09-04T04:04:47.796Z,0.00
2022-09-04T04:05:48.272Z,0.00
2022-09-04T04:06:47.757Z,4.00
2022-09-04T04:07:47.754Z,0.00
2022-09-04T04:08:47.739Z,4.00
2022-09-04T04:09:47.750Z,4.00
2022-09-04T04:10:47.718Z,8.00
2022-09-04T04:11:47.705Z,8.00
2022-09-04T04:12:48.977Z,8.00
2022-09-04T04:13:47.689Z,12.00
2022-09-04T04:14:47.696Z,8.00
2022-09-04T04:15:47.713Z,12.00
2022-09-04T04:16:55.794Z,12.00
2022-09-04T04:17:48.647Z,16.00
2022-09-04T04:18:47.636Z,20.00
2022-09-04T04:19:47.647Z,24.00
2022-09-04T04:20:47.618Z,28.00
2022-09-04T04:21:47.610Z,32.00
2022-09-04T04:22:47.601Z,40.00
2022-09-04T04:23:47.589Z,48.00
2022-09-04T04:24:47.601Z,56.00
2022-09-04T04:25:47.564Z,64.00
2022-09-04T04:26:50.551Z,76.00
2022-09-04T04:27:48.766Z,88.00
2022-09-04T04:28:47.534Z,100.00
2022-09-04T04:29:47.553Z,116.00
2022-09-04T04:30:47.519Z,128.00
2022-09-04T04:31:47.588Z,152.00
2022-09-04T04:32:47.495Z,168.00
2022-09-04T04:33:47.492Z,192.00
2022-09-04T04:34:47.505Z,216.00
2022-09-04T04:35:47.472Z,244.00
2022-09-04T04:36:47.459Z,268.00
2022-09-04T04:37:47.456Z,296.00
2022-09-04T04:38:47.446Z,328.00
2022-09-04T04:39:47.506Z,360.00
2022-09-04T04:40:47.426Z,400.00
2022-09-04T04:41:47.418Z,436.00
2022-09-04T04:42:47.406Z,476.00
2022-09-04T04:43:47.392Z,516.00
2022-09-04T04:44:47.397Z,556.00
2022-09-04T04:45:47.375Z,604.00
2022-09-04T04:46:47.407Z,652.00
2022-09-04T04:47:47.354Z,704.00
2022-09-04T04:48:47.335Z,752.00
2022-09-04T04:49:48.358Z,804.00
2022-09-04T04:50:47.322Z,856.00
2022-09-04T04:51:47.315Z,908.00
2022-09-04T04:52:47.305Z,964.00
2022-09-04T04:53:47.292Z,1024.00
2022-09-04T04:54:47.303Z,1080.00
2022-09-04T04:55:47.268Z,1140.00
2022-09-04T04:56:47.249Z,1196.00
2022-09-04T04:57:47.248Z,1256.00
2022-09-04T04:58:47.242Z,1316.00
2022-09-04T04:59:47.251Z,1380.00
2022-09-04T05:00:47.220Z,1444.00
2022-09-04T05:01:47.401Z,1504.00
2022-09-04T05:02:47.311Z,1568.00
2022-09-04T05:03:47.191Z,1632.00
2022-09-04T05:04:47.193Z,1696.00
2022-09-04T05:05:47.171Z,1768.00
2022-09-04T05:06:47.150Z,1836.00
2022-09-04T05:07:48.150Z,1900.00
2022-09-04T05:08:47.139Z,1960.00
2022-09-04T05:09:47.144Z,2024.00
2022-09-04T05:10:47.112Z,2088.00
2022-09-04T05:11:47.106Z,2152.00
2022-09-04T05:12:47.097Z,2216.00
2022-09-04T05:13:48.619Z,2276.00
2022-09-04T05:14:47.102Z,2332.00
2022-09-04T05:16:05.494Z,2400.00
2022-09-04T05:16:53.451Z,2460.00
2022-09-04T05:17:48.040Z,2532.00
2022-09-04T05:18:47.037Z,2596.00
2022-09-04T05:19:47.042Z,2660.00
2022-09-04T05:20:47.014Z,2724.00
2022-09-04T05:21:47.011Z,2788.00
2022-09-04T05:22:46.995Z,2852.00
2022-09-04T05:23:46.988Z,2912.00
2022-09-04T05:24:46.995Z,2980.00
2022-09-04T05:25:46.956Z,3040.00
2022-09-04T05:26:46.951Z,3100.00
2022-09-04T05:27:46.937Z,3156.00
2022-09-04T05:28:46.928Z,3220.00
2022-09-04T05:29:47.379Z,3284.00
2022-09-04T05:30:46.971Z,3348.00
2022-09-04T05:31:47.902Z,3408.00
2022-09-04T05:32:46.888Z,3476.00
2022-09-04T05:33:46.886Z,3536.00
2022-09-04T05:34:46.883Z,3596.00
2022-09-04T05:35:46.861Z,3656.00
2022-09-04T05:37:12.752Z,3708.00
2022-09-04T05:37:46.838Z,3756.00
2022-09-04T05:38:46.822Z,3808.00
2022-09-04T05:39:46.869Z,3860.00
2022-09-04T05:40:46.809Z,3916.00
2022-09-04T05:41:46.800Z,3964.00
2022-09-04T05:42:46.787Z,4008.00
2022-09-04T05:43:46.776Z,4044.00
2022-09-04T05:44:46.787Z,4076.00
2022-09-04T05:45:46.756Z,4060.00
2022-09-04T05:46:46.761Z,4240.00
2022-09-04T05:47:46.740Z,4292.00
2022-09-04T05:48:46.723Z,4336.00
2022-09-04T05:49:46.740Z,4384.00
2022-09-04T05:50:46.706Z,4420.00
2022-09-04T05:51:46.698Z,4460.00
2022-09-04T05:52:46.682Z,4512.00
2022-09-04T05:53:46.681Z,4560.00
2022-09-04T05:54:46.689Z,4612.00
2022-09-04T05:55:46.652Z,4656.00
2022-09-04T05:56:46.645Z,4692.00
2022-09-04T05:57:46.634Z,4716.00
2022-09-04T05:58:46.616Z,4728.00
2022-09-04T05:59:46.631Z,4744.00
2022-09-04T06:00:46.607Z,4724.00
2022-09-04T06:01:51.226Z,4852.00
2022-09-04T06:02:48.656Z,4884.00
2022-09-04T06:03:46.607Z,4904.00
2022-09-04T06:04:46.596Z,4916.00
2022-09-04T06:05:46.553Z,4948.00
2022-09-04T06:06:46.550Z,4984.00
2022-09-04T06:07:46.534Z,5012.00
2022-09-04T06:08:46.524Z,5036.00
2022-09-04T06:09:46.543Z,5052.00
2022-09-04T06:10:46.509Z,5040.00
2022-09-04T06:11:46.495Z,5060.00
2022-09-04T06:12:46.491Z,5164.00
2022-09-04T06:13:46.486Z,5192.00
2022-09-04T06:14:46.455Z,5140.00
2022-09-04T06:15:46.508Z,5252.00
2022-09-04T06:16:46.444Z,5240.00
2022-09-04T06:17:46.431Z,5252.00
2022-09-04T06:18:46.430Z,5272.00
2022-09-04T06:19:46.413Z,5288.00
2022-09-04T06:20:46.412Z,5312.00
2022-09-04T06:21:46.391Z,5364.00
2022-09-04T06:22:48.194Z,5392.00
2022-09-04T06:23:46.374Z,5444.00
2022-09-04T06:24:46.362Z,5492.00
2022-09-04T06:25:46.370Z,5528.00
2022-09-04T06:26:46.350Z,5624.00
2022-09-04T06:27:46.346Z,5720.00
2022-09-04T06:28:46.324Z,5812.00
2022-09-04T06:29:46.340Z,5896.00
2022-09-04T06:30:46.505Z,5956.00
2022-09-04T06:31:46.289Z,6024.00
2022-09-04T06:32:49.082Z,6072.00
2022-09-04T06:33:46.274Z,6092.00
2022-09-04T06:34:46.250Z,6120.00
2022-09-04T06:35:46.269Z,6196.00
2022-09-04T06:36:46.248Z,6300.00
2022-09-04T06:37:46.233Z,6308.00
2022-09-04T06:38:46.228Z,6300.00
2022-09-04T06:39:46.287Z,6332.00
2022-09-04T06:40:46.225Z,6336.00
2022-09-04T06:41:46.201Z,6392.00
2022-09-04T06:42:46.185Z,6432.00
2022-09-04T06:43:46.175Z,6468.00
2022-09-04T06:44:46.173Z,6480.00
2022-09-04T06:45:46.175Z,6516.00
2022-09-04T06:46:46.193Z,6536.00
2022-09-04T06:47:46.137Z,6584.00
2022-09-04T06:48:46.126Z,6636.00
2022-09-04T06:49:46.117Z,6680.00
2022-09-04T06:50:46.117Z,6708.00
2022-09-04T06:51:46.117Z,6740.00
2022-09-04T06:52:46.087Z,6776.00
2022-09-04T06:53:46.072Z,6816.00
2022-09-04T06:54:46.100Z,6852.00
2022-09-04T06:55:46.053Z,6880.00
2022-09-04T06:56:46.047Z,6916.00
2022-09-04T06:57:46.052Z,6828.00
2022-09-04T06:58:46.023Z,6864.00
2022-09-04T06:59:46.036Z,7044.00
2022-09-04T07:00:46.010Z,7052.00
2022-09-04T07:01:46.079Z,7080.00
2022-09-04T07:02:46.030Z,7112.00
2022-09-04T07:03:45.980Z,7152.00
2022-09-04T07:04:45.983Z,7184.00
2022-09-04T07:05:45.958Z,7216.00
2022-09-04T07:06:45.946Z,7240.00
2022-09-04T07:07:45.941Z,7260.00
2022-09-04T07:08:45.978Z,7292.00
2022-09-04T07:09:45.941Z,7300.00
2022-09-04T07:10:45.903Z,7332.00
2022-09-04T07:11:45.885Z,7352.00
2022-09-04T07:12:45.896Z,7356.00
2022-09-04T07:13:45.889Z,7376.00
2022-09-04T07:14:45.888Z,7400.00
2022-09-04T07:15:45.911Z,7392.00
2022-09-04T07:16:45.843Z,7412.00
2022-09-04T07:17:45.841Z,7456.00
2022-09-04T07:18:45.834Z,7476.00
2022-09-04T07:19:45.839Z,7488.00
2022-09-04T07:20:45.817Z,7504.00
2022-09-04T07:21:45.795Z,7488.00
2022-09-04T07:22:45.787Z,7392.00
2022-09-04T07:23:45.778Z,7424.00
2022-09-04T07:24:45.789Z,7396.00
2022-09-04T07:25:45.760Z,7408.00
2022-09-04T07:26:45.749Z,7384.00
2022-09-04T07:27:45.762Z,7536.00
2022-09-04T07:28:45.738Z,7640.00
2022-09-04T07:29:45.739Z,7656.00
2022-09-04T07:30:45.705Z,7728.00
2022-09-04T07:31:45.740Z,7740.00
2022-09-04T07:32:45.695Z,7736.00
2022-09-04T07:33:45.676Z,7732.00
2022-09-04T07:34:45.702Z,7740.00
2022-09-04T07:35:45.663Z,7764.00
2022-09-04T07:36:45.650Z,7728.00
2022-09-04T07:37:45.639Z,7740.00
2022-09-04T07:38:50.571Z,7788.00
2022-09-04T07:39:45.703Z,7804.00
2022-09-04T07:40:45.615Z,7856.00
2022-09-04T07:41:45.601Z,7900.00
2022-09-04T07:42:45.583Z,7920.00
2022-09-04T07:43:45.583Z,7956.00
2022-09-04T07:44:45.614Z,7964.00
2022-09-04T07:45:45.682Z,7976.00
2022-09-04T07:46:45.551Z,7996.00
2022-09-04T07:47:45.552Z,7932.00
2022-09-04T07:48:45.587Z,7972.00
2022-09-04T07:49:45.542Z,7976.00
2022-09-04T07:50:45.513Z,7960.00
2022-09-04T07:51:45.509Z,7996.00
2022-09-04T07:52:45.512Z,8012.00
2022-09-04T07:53:45.544Z,8040.00
2022-09-04T07:54:45.527Z,8088.00
2022-09-04T07:55:45.544Z,8136.00
2022-09-04T07:56:45.462Z,8124.00
2022-09-04T07:57:45.440Z,8112.00
2022-09-04T07:58:45.426Z,8176.00
2022-09-04T07:59:45.447Z,8184.00
2022-09-04T08:00:45.424Z,8116.00
2022-09-04T08:01:45.440Z,8188.00
2022-09-04T08:02:45.601Z,8208.00
2022-09-04T08:03:54.347Z,8192.00
2022-09-04T08:04:46.449Z,8216.00
2022-09-04T08:05:45.376Z,8232.00
2022-09-04T08:06:45.361Z,8196.00
2022-09-04T08:07:45.349Z,8192.00
2022-09-04T08:08:45.350Z,8204.00
2022-09-04T08:09:45.344Z,8176.00
2022-09-04T08:10:45.323Z,8192.00
2022-09-04T08:11:45.301Z,8216.00
2022-09-04T08:12:45.303Z,8144.00
2022-09-04T08:13:45.289Z,8144.00
2022-09-04T08:14:45.288Z,8116.00
2022-09-04T08:15:45.299Z,8192.00
2022-09-04T08:16:45.260Z,8088.00
2022-09-04T08:17:45.250Z,8228.00
2022-09-04T08:18:45.237Z,8232.00
2022-09-04T08:19:45.253Z,8252.00
2022-09-04T08:20:45.219Z,8168.00
2022-09-04T08:21:45.213Z,8056.00
2022-09-04T08:22:45.201Z,8064.00
2022-09-04T08:23:45.191Z,8260.00
2022-09-04T08:24:45.200Z,8324.00
2022-09-04T08:25:45.170Z,8284.00
2022-09-04T08:26:45.157Z,8344.00
2022-09-04T08:27:45.177Z,8316.00
2022-09-04T08:28:46.393Z,8284.00
2022-09-04T08:29:46.149Z,8184.00
2022-09-04T08:30:45.185Z,8380.00
2022-09-04T08:31:45.107Z,8328.00
2022-09-04T08:32:45.100Z,8404.00
2022-09-04T08:33:45.099Z,8272.00
2022-09-04T08:34:45.103Z,8424.00
2022-09-04T08:35:45.096Z,8484.00
2022-09-04T08:36:45.075Z,8468.00
2022-09-04T08:37:45.061Z,8420.00
2022-09-04T08:38:45.040Z,8324.00
2022-09-04T08:39:45.079Z,8408.00
2022-09-04T08:40:45.033Z,8300.00
2022-09-04T08:41:45.030Z,8404.00
2022-09-04T08:42:45.010Z,8344.00
2022-09-04T08:43:45.000Z,8408.00
2022-09-04T08:44:45.016Z,8428.00
2022-09-04T08:45:44.984Z,8424.00
2022-09-04T08:46:45.005Z,8376.00
2022-09-04T08:47:44.958Z,8304.00
2022-09-04T08:48:44.952Z,8468.00
2022-09-04T08:49:44.963Z,8340.00
2022-09-04T08:50:44.927Z,8360.00
2022-09-04T08:51:44.931Z,8452.00
2022-09-04T08:52:44.918Z,8600.00
2022-09-04T08:53:44.902Z,8616.00
2022-09-04T08:54:44.916Z,8700.00
2022-09-04T08:55:44.877Z,8640.00
2022-09-04T08:56:44.879Z,8728.00
2022-09-04T08:57:44.863Z,8696.00
2022-09-04T08:58:47.810Z,8648.00
2022-09-04T08:59:45.866Z,8664.00
2022-09-04T09:00:44.840Z,8748.00
2022-09-04T09:01:44.848Z,8712.00
2022-09-04T09:02:45.030Z,8660.00
2022-09-04T09:03:44.802Z,8716.00
2022-09-04T09:04:44.809Z,8772.00
2022-09-04T09:05:44.782Z,8720.00
2022-09-04T09:06:44.774Z,8644.00
2022-09-04T09:07:44.766Z,8144.00
2022-09-04T09:08:44.760Z,8276.00
2022-09-04T09:09:44.767Z,6596.00
2022-09-04T09:10:44.753Z,8688.00
2022-09-04T09:11:44.730Z,8848.00
2022-09-04T09:12:44.720Z,8840.00
2022-09-04T09:13:44.705Z,8908.00
2022-09-04T09:14:44.701Z,8948.00
2022-09-04T09:15:44.681Z,8904.00
2022-09-04T09:16:44.721Z,8872.00
2022-09-04T09:17:44.664Z,8900.00
2022-09-04T09:18:44.665Z,8868.00
2022-09-04T09:19:44.659Z,8908.00
2022-09-04T09:20:44.636Z,9032.00
2022-09-04T09:21:44.618Z,9068.00
2022-09-04T09:22:44.617Z,9052.00
2022-09-04T09:23:44.674Z,9056.00
2022-09-04T09:24:44.608Z,9040.00
2022-09-04T09:25:44.590Z,8956.00
2022-09-04T09:26:44.566Z,8912.00
2022-09-04T09:27:44.573Z,8988.00
2022-09-04T09:28:44.566Z,9000.00
2022-09-04T09:29:44.568Z,9024.00
2022-09-04T09:30:44.597Z,9004.00
2022-09-04T09:31:44.522Z,9052.00
2022-09-04T09:32:44.528Z,9076.00
2022-09-04T09:33:44.507Z,9040.00
2022-09-04T09:34:44.529Z,9048.00
2022-09-04T09:35:44.483Z,9028.00
2022-09-04T09:36:44.483Z,9064.00
2022-09-04T09:37:44.472Z,9096.00
2022-09-04T09:38:44.463Z,9152.00
2022-09-04T09:39:44.569Z,9164.00
2022-09-04T09:40:44.456Z,9160.00
2022-09-04T09:41:44.433Z,9248.00
2022-09-04T09:42:44.430Z,9168.00
2022-09-04T09:43:44.411Z,9092.00
2022-09-04T09:44:44.431Z,9200.00
2022-09-04T09:45:44.450Z,9216.00
2022-09-04T09:46:44.387Z,9240.00
2022-09-04T09:47:44.382Z,9168.00
2022-09-04T09:48:44.372Z,9184.00
2022-09-04T09:49:44.380Z,9168.00
2022-09-04T09:50:44.356Z,9280.00
2022-09-04T09:51:44.358Z,9272.00
2022-09-04T09:52:44.326Z,9128.00
2022-09-04T09:53:47.188Z,9280.00
2022-09-04T09:54:45.321Z,9320.00
2022-09-04T09:55:44.303Z,9304.00
2022-09-04T09:56:46.700Z,9288.00
2022-09-04T09:57:45.278Z,9252.00
2022-09-04T09:58:44.262Z,9312.00
2022-09-04T09:59:44.276Z,9360.00
2022-09-04T10:00:44.246Z,7176.00
2022-09-04T10:01:44.275Z,9048.00
2022-09-04T10:02:44.266Z,8980.00
2022-09-04T10:03:44.224Z,9152.00
2022-09-04T10:04:44.229Z,9032.00
2022-09-04T10:05:44.200Z,9312.00
2022-09-04T10:06:44.194Z,9324.00
2022-09-04T10:07:44.194Z,9364.00
2022-09-04T10:08:44.170Z,9124.00
2022-09-04T10:09:44.184Z,9284.00
2022-09-04T10:10:44.144Z,9368.00
2022-09-04T10:11:44.135Z,9396.00
2022-09-04T10:12:44.133Z,9432.00
2022-09-04T10:13:44.122Z,9296.00
2022-09-04T10:14:44.118Z,9344.00
2022-09-04T10:15:44.094Z,9416.00
2022-09-04T10:16:44.197Z,9400.00
2022-09-04T10:17:44.075Z,9336.00
2022-09-04T10:18:44.074Z,9360.00
2022-09-04T10:19:44.089Z,9320.00
2022-09-04T10:20:44.053Z,9224.00
2022-09-04T10:21:44.039Z,9496.00
2022-09-04T10:22:44.021Z,9504.00
2022-09-04T10:23:44.013Z,9548.00
2022-09-04T10:24:44.021Z,9548.00
2022-09-04T10:25:44.000Z,9616.00
2022-09-04T10:26:43.991Z,9532.00
2022-09-04T10:27:44.208Z,9564.00
2022-09-04T10:28:44.978Z,9600.00
2022-09-04T10:29:43.990Z,9588.00
2022-09-04T10:30:44.040Z,9532.00
2022-09-04T10:31:43.944Z,9472.00
2022-09-04T10:32:43.925Z,9512.00
2022-09-04T10:33:43.917Z,9584.00
2022-09-04T10:34:43.917Z,9588.00
2022-09-04T10:35:43.900Z,9612.00
2022-09-04T10:36:43.892Z,9712.00
2022-09-04T10:37:43.882Z,9772.00
2022-09-04T10:38:43.859Z,9752.00
2022-09-04T10:39:43.956Z,9668.00
2022-09-04T10:40:46.942Z,9644.00
2022-09-04T10:41:45.837Z,9692.00
2022-09-04T10:42:43.829Z,9708.00
2022-09-04T10:43:43.829Z,9644.00
2022-09-04T10:44:43.834Z,9580.00
2022-09-04T10:45:43.963Z,9712.00
2022-09-04T10:46:43.788Z,9728.00
2022-09-04T10:47:43.787Z,9760.00
2022-09-04T10:48:43.785Z,9752.00
2022-09-04T10:49:43.791Z,9756.00
2022-09-04T10:50:43.752Z,9748.00
2022-09-04T10:51:43.744Z,9756.00
2022-09-04T10:52:43.734Z,9776.00
2022-09-04T10:53:43.722Z,9740.00
2022-09-04T10:54:43.733Z,9788.00
2022-09-04T10:55:43.704Z,9800.00
2022-09-04T10:56:43.698Z,9780.00
2022-09-04T10:57:43.690Z,9756.00
2022-09-04T10:58:43.665Z,9780.00
2022-09-04T10:59:43.681Z,9804.00
2022-09-04T11:00:43.677Z,9808.00
2022-09-04T11:01:44.631Z,9820.00
2022-09-04T11:02:43.676Z,9820.00
2022-09-04T11:03:43.630Z,9840.00
2022-09-04T11:04:43.630Z,9820.00
2022-09-04T11:05:43.605Z,9808.00
2022-09-04T11:06:43.593Z,9832.00
2022-09-04T11:07:43.577Z,9836.00
2022-09-04T11:08:43.585Z,9912.00
2022-09-04T11:09:43.593Z,9960.00
2022-09-04T11:10:43.563Z,9960.00
2022-09-04T11:11:43.542Z,10016.00
2022-09-04T11:12:43.536Z,10004.00
2022-09-04T11:13:46.002Z,10024.00
2022-09-04T11:14:43.524Z,10060.00
2022-09-04T11:15:43.496Z,10044.00
2022-09-04T11:16:43.502Z,10108.00
2022-09-04T11:17:43.486Z,10128.00
2022-09-04T11:18:43.479Z,10048.00
2022-09-04T11:19:43.491Z,10172.00
2022-09-04T11:20:43.458Z,10172.00
2022-09-04T11:21:43.443Z,10164.00
2022-09-04T11:22:43.439Z,10040.00
2022-09-04T11:23:43.452Z,10088.00
2022-09-04T11:24:43.440Z,10236.00
2022-09-04T11:25:43.464Z,10292.00
2022-09-04T11:26:43.396Z,10132.00
2022-09-04T11:27:43.389Z,10004.00
2022-09-04T11:28:43.380Z,10056.00
2022-09-04T11:29:43.389Z,10252.00
2022-09-04T11:30:47.903Z,10272.00
2022-09-04T11:31:43.382Z,10320.00
2022-09-04T11:32:43.341Z,10484.00
2022-09-04T11:33:43.329Z,10504.00
2022-09-04T11:34:43.340Z,10444.00
2022-09-04T11:35:43.312Z,10380.00
2022-09-04T11:36:43.304Z,10336.00
2022-09-04T11:37:43.297Z,10396.00
2022-09-04T11:38:43.282Z,10500.00
2022-09-04T11:39:43.351Z,10552.00
2022-09-04T11:40:43.270Z,10580.00
2022-09-04T11:41:43.267Z,10696.00
2022-09-04T11:42:43.238Z,10684.00
2022-09-04T11:43:43.236Z,10636.00
2022-09-04T11:45:15.144Z,10692.00
2022-09-04T11:45:43.264Z,10564.00
2022-09-04T11:46:43.206Z,10668.00
2022-09-04T11:47:43.198Z,10700.00
2022-09-04T11:48:43.181Z,10660.00
2022-09-04T11:49:43.196Z,10612.00
2022-09-04T11:50:43.157Z,10580.00
2022-09-04T11:51:43.165Z,10416.00
2022-09-04T11:52:43.141Z,10388.00
2022-09-04T11:53:43.133Z,10528.00
2022-09-04T11:54:43.147Z,10596.00
2022-09-04T11:55:43.126Z,10588.00
2022-09-04T11:56:43.112Z,10492.00
2022-09-04T11:57:43.096Z,10472.00
2022-09-04T11:58:43.081Z,10444.00
2022-09-04T11:59:43.097Z,10384.00
2022-09-04T12:00:43.065Z,10440.00
2022-09-04T12:01:47.505Z,10468.00
2022-09-04T12:02:44.049Z,10420.00
2022-09-04T12:03:43.069Z,10432.00
2022-09-04T12:04:43.044Z,7780.00
2022-09-04T12:05:43.022Z,7540.00
2022-09-04T12:06:43.004Z,7708.00
2022-09-04T12:07:43.583Z,8592.00
2022-09-04T12:08:43.991Z,9568.00
2022-09-04T12:09:43.001Z,7428.00
2022-09-04T12:10:42.976Z,7192.00
2022-09-04T12:11:42.965Z,7172.00
2022-09-04T12:12:42.956Z,7392.00
2022-09-04T12:13:42.945Z,9960.00
2022-09-04T12:14:42.960Z,10532.00
2022-09-04T12:15:42.927Z,10664.00
2022-09-04T12:16:44.419Z,10736.00
2022-09-04T12:17:42.898Z,10768.00
2022-09-04T12:18:42.894Z,10772.00
2022-09-04T12:19:42.903Z,10848.00
2022-09-04T12:20:42.883Z,11056.00
2022-09-04T12:21:42.867Z,11256.00
2022-09-04T12:22:42.859Z,11432.00
2022-09-04T12:23:42.850Z,11528.00
2022-09-04T12:24:42.866Z,11664.00
2022-09-04T12:25:42.837Z,11764.00
2022-09-04T12:26:52.106Z,11796.00
2022-09-04T12:27:43.814Z,11712.00
2022-09-04T12:28:42.814Z,11556.00